Archival Weather

Murmansk

Murmansk, Russia (ULMM)

Report from: Tuesday, May 21, 2024 2:30 PM MSK
Current time: Monday, June 17, 2024 10:43 AM MSK

Current weather – Weather history – Daily summaries
Weather forecast

Temperature3.0°C (37.4°F)
Wind chill-2.1°C (28.3°F)
Dew point-8.0°C (17.6°F)
Winds 13.6 kts (7 m/s, 15.7 mph) Northwest (310°)
Visibility6.2 mi. (10 km)
Clouds Ceiling: Broken clouds with cumulonimbus 3,000 ft. (914 m)
Altimeter30.21 in.Hg (1023 mB)
Precip. events QF 10:40 PM
Relative humidity44 %
Density altitude-1,731 ft. (-528 m)
Remarks No significant changes expected in the next two hours
Flight conditions Visual Meteorological Conditions
Raw dataULMM 211130Z 31007MPS 9999 BKN030CB 03/M08 Q1023 R31/250049 NOSIG RMK QFE760
An error has occurred. This application may no longer respond until reloaded. Reload 🗙